createdAt,value
2023-11-19T00:00:05.579Z,3.92
2023-11-19T00:00:16.606Z,3.94
2023-11-19T00:00:27.642Z,3.92
2023-11-19T00:00:39.640Z,3.94
2023-11-19T00:00:54.491Z,3.96
2023-11-19T00:01:02.625Z,3.94
2023-11-19T00:01:14.692Z,3.92
2023-11-19T00:01:25.799Z,3.90
2023-11-19T00:01:37.732Z,3.94
2023-11-19T00:01:49.789Z,3.94
2023-11-19T00:02:01.765Z,3.92
2023-11-19T00:02:12.694Z,3.94
2023-11-19T00:02:24.635Z,3.94
2023-11-19T00:02:36.721Z,3.94
2023-11-19T00:02:48.803Z,3.94
2023-11-19T00:03:00.708Z,3.94
2023-11-19T00:03:12.651Z,3.94
2023-11-19T00:03:24.614Z,3.92
2023-11-19T00:03:35.616Z,3.90
2023-11-19T00:03:47.531Z,3.92
2023-11-19T00:03:58.720Z,3.92
2023-11-19T00:04:10.662Z,3.90
2023-11-19T00:04:22.686Z,3.92
2023-11-19T00:04:33.684Z,3.92
2023-11-19T00:04:44.636Z,3.92
2023-11-19T00:04:55.681Z,3.90
2023-11-19T00:05:06.647Z,3.92
2023-11-19T00:05:17.600Z,3.92
2023-11-19T00:05:29.583Z,3.92
2023-11-19T00:05:40.597Z,3.94
2023-11-19T00:05:51.596Z,3.92
2023-11-19T00:06:02.600Z,3.90
2023-11-19T00:06:13.599Z,3.92
2023-11-19T00:06:24.597Z,3.92
2023-11-19T00:06:35.594Z,3.92
2023-11-19T00:06:47.613Z,3.94
2023-11-19T00:06:58.618Z,3.94
2023-11-19T00:07:09.684Z,3.92
2023-11-19T00:07:21.669Z,3.92
2023-11-19T00:07:35.538Z,3.92
2023-11-19T00:07:43.776Z,3.92
2023-11-19T00:07:55.598Z,3.92
2023-11-19T00:08:07.585Z,3.94
2023-11-19T00:08:18.575Z,3.94
2023-11-19T00:08:29.558Z,3.94
2023-11-19T00:08:40.545Z,3.96
2023-11-19T00:08:51.628Z,3.96
2023-11-19T00:09:03.596Z,3.96
2023-11-19T00:09:14.587Z,3.96
2023-11-19T00:09:25.583Z,3.96
2023-11-19T00:09:36.582Z,3.96
2023-11-19T00:09:47.584Z,3.97
2023-11-19T00:09:58.582Z,3.97
2023-11-19T00:10:09.613Z,3.96
2023-11-19T00:10:21.590Z,3.98
2023-11-19T00:10:32.615Z,3.96
2023-11-19T00:10:44.584Z,3.97
2023-11-19T00:10:55.580Z,3.98
2023-11-19T00:11:06.578Z,3.97
2023-11-19T00:11:17.578Z,4.00
2023-11-19T00:11:28.599Z,3.98
2023-11-19T00:11:39.597Z,4.00
2023-11-19T00:12:02.616Z,4.01
2023-11-19T00:12:13.602Z,4.01
2023-11-19T00:12:24.603Z,4.03
2023-11-19T00:12:36.618Z,4.03
2023-11-19T00:12:48.608Z,4.04
2023-11-19T00:12:59.626Z,4.03
2023-11-19T00:13:11.688Z,4.04
2023-11-19T00:13:23.619Z,4.04
2023-11-19T00:13:35.584Z,4.04
2023-11-19T00:13:46.600Z,4.04
2023-11-19T00:13:57.601Z,4.04
2023-11-19T00:14:08.596Z,4.04
2023-11-19T00:14:19.600Z,4.04
2023-11-19T00:14:30.602Z,4.06
2023-11-19T00:14:41.600Z,4.04
2023-11-19T00:14:53.582Z,4.06
2023-11-19T00:15:04.576Z,4.07
2023-11-19T00:15:15.602Z,4.06
2023-11-19T00:15:26.600Z,4.06
2023-11-19T00:15:37.588Z,4.07
2023-11-19T00:15:48.701Z,4.06
2023-11-19T00:15:59.615Z,4.07
2023-11-19T00:16:11.596Z,4.08
2023-11-19T00:16:22.623Z,4.07
2023-11-19T00:16:33.571Z,4.08
2023-11-19T00:16:44.555Z,4.08
2023-11-19T00:16:55.553Z,4.08
2023-11-19T00:17:06.554Z,4.10
2023-11-19T00:17:17.645Z,4.10
2023-11-19T00:17:29.761Z,4.08
2023-11-19T00:17:42.004Z,4.08
2023-11-19T00:17:53.605Z,4.10
2023-11-19T00:18:04.655Z,4.08
2023-11-19T00:18:15.669Z,4.10
2023-11-19T00:18:27.661Z,4.08
2023-11-19T00:18:38.605Z,4.12
2023-11-19T00:18:50.685Z,4.10
2023-11-19T00:19:02.653Z,4.10
2023-11-19T00:19:13.576Z,4.10
2023-11-19T00:19:24.608Z,4.10
2023-11-19T00:19:36.599Z,4.12
2023-11-19T00:19:47.592Z,4.10
2023-11-19T00:19:59.598Z,4.10
2023-11-19T00:20:10.595Z,4.10
2023-11-19T00:20:21.606Z,4.12
2023-11-19T00:20:32.594Z,4.12
2023-11-19T00:20:43.606Z,4.14
2023-11-19T00:20:54.597Z,4.12
2023-11-19T00:21:05.595Z,4.10
2023-11-19T00:21:17.596Z,4.14
2023-11-19T00:21:28.584Z,4.12
2023-11-19T00:21:39.588Z,4.12
2023-11-19T00:21:50.619Z,4.10
2023-11-19T00:22:02.618Z,4.10
2023-11-19T00:22:14.617Z,4.10
2023-11-19T00:22:26.617Z,4.12
2023-11-19T00:22:49.050Z,4.14
2023-11-19T00:22:51.583Z,4.10
2023-11-19T00:23:01.609Z,4.12
2023-11-19T00:23:12.610Z,4.12
2023-11-19T00:23:23.601Z,4.12
2023-11-19T00:23:34.601Z,4.10
2023-11-19T00:23:45.601Z,4.12
2023-11-19T00:23:56.613Z,4.12
2023-11-19T00:24:07.606Z,4.10
2023-11-19T00:24:18.586Z,4.14
2023-11-19T00:24:30.608Z,4.14
2023-11-19T00:24:41.608Z,4.12
2023-11-19T00:24:52.618Z,4.12
2023-11-19T00:25:04.627Z,4.12
2023-11-19T00:25:16.639Z,4.14
2023-11-19T00:25:27.657Z,4.14
2023-11-19T00:25:38.651Z,4.12
2023-11-19T00:25:50.565Z,4.12
2023-11-19T00:26:01.571Z,4.12
2023-11-19T00:26:12.599Z,4.12
2023-11-19T00:26:23.587Z,4.10
2023-11-19T00:26:34.597Z,4.12
2023-11-19T00:26:45.602Z,4.14
2023-11-19T00:26:56.586Z,4.15
2023-11-19T00:27:07.594Z,4.14
2023-11-19T00:27:18.616Z,4.14
2023-11-19T00:27:30.591Z,4.14
2023-11-19T00:27:41.600Z,4.12
2023-11-19T00:27:52.739Z,4.14
2023-11-19T00:28:03.639Z,4.14
2023-11-19T00:28:15.627Z,4.15
2023-11-19T00:28:27.622Z,4.15
2023-11-19T00:28:38.612Z,4.14
2023-11-19T00:28:49.665Z,4.15
2023-11-19T00:29:00.557Z,4.16
2023-11-19T00:29:11.646Z,4.16
2023-11-19T00:29:23.613Z,4.15
2023-11-19T00:29:35.617Z,4.16
2023-11-19T00:29:47.593Z,4.16
2023-11-19T00:29:58.590Z,4.16
2023-11-19T00:30:09.648Z,4.15
2023-11-19T00:30:20.569Z,4.15
2023-11-19T00:30:31.587Z,4.15
2023-11-19T00:30:42.582Z,4.15
2023-11-19T00:30:53.646Z,4.15
2023-11-19T00:31:04.624Z,4.16
2023-11-19T00:31:16.638Z,4.16
2023-11-19T00:31:27.703Z,4.14
2023-11-19T00:31:39.704Z,4.16
2023-11-19T00:31:50.878Z,4.16
2023-11-19T00:32:01.678Z,4.16
2023-11-19T00:32:13.612Z,4.18
2023-11-19T00:32:24.613Z,4.19
2023-11-19T00:32:35.605Z,4.18
2023-11-19T00:32:47.598Z,4.19
2023-11-19T00:32:59.581Z,4.19
2023-11-19T00:33:10.615Z,4.19
2023-11-19T00:33:22.604Z,4.19
2023-11-19T00:33:34.594Z,4.18
2023-11-19T00:33:57.690Z,4.19
2023-11-19T00:34:08.626Z,4.18
2023-11-19T00:34:20.646Z,4.19
2023-11-19T00:34:32.670Z,4.19
2023-11-19T00:34:44.704Z,4.21
2023-11-19T00:34:56.557Z,4.21
2023-11-19T00:35:07.654Z,4.21
2023-11-19T00:35:19.619Z,4.22
2023-11-19T00:35:30.612Z,4.24
2023-11-19T00:35:41.609Z,4.22
2023-11-19T00:35:52.604Z,4.24
2023-11-19T00:36:03.598Z,4.22
2023-11-19T00:36:14.574Z,4.24
2023-11-19T00:36:25.583Z,4.22
2023-11-19T00:36:36.570Z,4.22
2023-11-19T00:36:47.646Z,4.22
2023-11-19T00:36:59.642Z,4.22
2023-11-19T00:37:11.669Z,4.24
2023-11-19T00:37:22.623Z,4.24
2023-11-19T00:37:34.585Z,4.25
2023-11-19T00:37:45.575Z,4.24
2023-11-19T00:37:56.585Z,4.24
2023-11-19T00:38:07.579Z,4.25
2023-11-19T00:38:18.584Z,4.25
2023-11-19T00:38:29.572Z,4.25
2023-11-19T00:38:40.573Z,4.25
2023-11-19T00:38:51.580Z,4.26
2023-11-19T00:39:02.626Z,4.25
2023-11-19T00:39:13.612Z,4.25
2023-11-19T00:39:24.615Z,4.26
2023-11-19T00:39:35.604Z,4.28
2023-11-19T00:39:47.593Z,4.26
2023-11-19T00:39:58.593Z,4.28
2023-11-19T00:40:09.630Z,4.28
2023-11-19T00:40:20.657Z,4.29
2023-11-19T00:40:32.661Z,4.29
2023-11-19T00:40:44.649Z,4.28
2023-11-19T00:40:56.615Z,4.28
2023-11-19T00:41:07.617Z,4.28
2023-11-19T00:41:18.625Z,4.28
2023-11-19T00:41:29.618Z,4.29
2023-11-19T00:41:41.586Z,4.28
2023-11-19T00:41:53.602Z,4.28
2023-11-19T00:42:04.607Z,4.28
2023-11-19T00:42:15.597Z,4.28
2023-11-19T00:42:26.596Z,4.28
2023-11-19T00:42:37.598Z,4.29
2023-11-19T00:42:48.618Z,4.32
2023-11-19T00:43:01.660Z,4.28
2023-11-19T00:43:12.714Z,4.28
2023-11-19T00:43:24.644Z,4.29
2023-11-19T00:43:35.619Z,4.28
2023-11-19T00:43:46.638Z,4.28
2023-11-19T00:43:58.600Z,4.29
2023-11-19T00:44:10.604Z,4.29
2023-11-19T00:44:21.598Z,4.28
2023-11-19T00:44:32.605Z,4.28
2023-11-19T00:44:51.109Z,4.29
2023-11-19T00:44:56.622Z,4.29
2023-11-19T00:45:06.567Z,4.29
2023-11-19T00:45:17.619Z,4.29
2023-11-19T00:45:29.609Z,4.28
2023-11-19T00:45:40.613Z,4.32
2023-11-19T00:45:51.659Z,4.32
2023-11-19T00:46:02.603Z,4.32
2023-11-19T00:46:13.683Z,4.29
2023-11-19T00:46:24.693Z,4.32
2023-11-19T00:46:36.645Z,4.33
2023-11-19T00:46:47.642Z,4.33
2023-11-19T00:46:58.577Z,4.33
2023-11-19T00:47:09.618Z,4.32
2023-11-19T00:47:21.728Z,4.33
2023-11-19T00:47:32.709Z,4.32
2023-11-19T00:47:44.645Z,4.33
2023-11-19T00:47:56.629Z,4.33
2023-11-19T00:48:08.658Z,4.34
2023-11-19T00:48:20.582Z,4.33
2023-11-19T00:48:31.582Z,4.34
2023-11-19T00:48:42.584Z,4.34
2023-11-19T00:48:53.587Z,4.34
2023-11-19T00:49:04.611Z,4.34
2023-11-19T00:49:15.625Z,4.34
2023-11-19T00:49:27.638Z,4.36
2023-11-19T00:49:39.635Z,4.34
2023-11-19T00:49:51.602Z,4.34
2023-11-19T00:50:02.590Z,4.34
2023-11-19T00:50:13.625Z,4.34
2023-11-19T00:50:25.583Z,4.33
2023-11-19T00:50:38.238Z,4.34
2023-11-19T00:50:47.624Z,4.36
2023-11-19T00:50:58.616Z,4.33
2023-11-19T00:51:10.597Z,4.33
2023-11-19T00:51:21.612Z,4.34
2023-11-19T00:51:33.620Z,4.34
2023-11-19T00:51:44.606Z,4.36
2023-11-19T00:51:55.642Z,4.34
2023-11-19T00:52:07.675Z,4.36
2023-11-19T00:52:19.722Z,4.36
2023-11-19T00:52:31.682Z,4.34
2023-11-19T00:52:42.597Z,4.34
2023-11-19T00:52:53.591Z,4.34
2023-11-19T00:53:04.582Z,4.36
2023-11-19T00:53:15.583Z,4.36
2023-11-19T00:53:26.591Z,4.36
2023-11-19T00:53:37.595Z,4.37
2023-11-19T00:53:48.593Z,4.36
2023-11-19T00:53:59.600Z,4.36
2023-11-19T00:54:10.611Z,4.36
2023-11-19T00:54:21.596Z,4.36
2023-11-19T00:54:32.589Z,4.36
2023-11-19T00:54:43.600Z,4.36
2023-11-19T00:54:54.607Z,4.36
2023-11-19T00:55:05.640Z,4.37
2023-11-19T00:55:17.657Z,4.39
2023-11-19T00:55:28.681Z,4.39
2023-11-19T00:55:47.095Z,4.39
2023-11-19T00:55:52.597Z,4.40
2023-11-19T00:56:02.586Z,4.39
2023-11-19T00:56:13.672Z,4.42
2023-11-19T00:56:24.598Z,4.40
2023-11-19T00:56:35.598Z,4.40
2023-11-19T00:56:46.623Z,4.40
2023-11-19T00:56:58.581Z,4.39
2023-11-19T00:57:09.590Z,4.40
2023-11-19T00:57:20.583Z,4.42
2023-11-19T00:57:31.570Z,4.42
2023-11-19T00:57:42.589Z,4.42
2023-11-19T00:57:53.639Z,4.42
2023-11-19T00:58:04.649Z,4.42
2023-11-19T00:58:15.603Z,4.43
2023-11-19T00:58:27.628Z,4.42
2023-11-19T00:58:38.613Z,4.42
2023-11-19T00:58:49.629Z,4.42
2023-11-19T00:59:01.585Z,4.43
2023-11-19T00:59:12.582Z,4.43
2023-11-19T00:59:23.595Z,4.43
2023-11-19T00:59:34.578Z,4.43
2023-11-19T00:59:45.590Z,4.42
2023-11-19T00:59:56.595Z,4.42
2023-11-19T01:00:07.606Z,4.43
2023-11-19T01:00:20.760Z,4.43
2023-11-19T01:00:30.593Z,4.43
2023-11-19T01:00:41.593Z,4.43
2023-11-19T01:00:52.603Z,4.43
2023-11-19T01:01:04.622Z,4.43
2023-11-19T01:01:16.642Z,4.43
2023-11-19T01:01:28.638Z,4.43
2023-11-19T01:01:40.597Z,4.42
2023-11-19T01:01:51.597Z,4.43
2023-11-19T01:02:02.632Z,4.43
2023-11-19T01:02:14.620Z,4.43
2023-11-19T01:02:26.638Z,4.43
2023-11-19T01:02:38.774Z,4.43
2023-11-19T01:02:50.905Z,4.43
2023-11-19T01:03:01.850Z,4.43
2023-11-19T01:03:13.880Z,4.43
2023-11-19T01:03:25.712Z,4.43
2023-11-19T01:03:36.690Z,4.43
2023-11-19T01:03:47.613Z,4.43
2023-11-19T01:03:58.724Z,4.43
2023-11-19T01:04:09.688Z,4.43
2023-11-19T01:04:20.698Z,4.43
2023-11-19T01:04:32.669Z,4.43
2023-11-19T01:04:43.647Z,4.43
2023-11-19T01:04:54.653Z,4.43
2023-11-19T01:05:05.600Z,4.43
2023-11-19T01:05:16.631Z,4.43
2023-11-19T01:05:28.590Z,4.44
2023-11-19T01:05:39.573Z,4.43
2023-11-19T01:05:51.579Z,4.44
2023-11-19T01:06:02.585Z,4.43
2023-11-19T01:06:13.564Z,4.44
2023-11-19T01:06:24.645Z,4.44
2023-11-19T01:06:36.628Z,4.46
2023-11-19T01:06:50.252Z,4.44
2023-11-19T01:06:58.652Z,4.46
2023-11-19T01:07:09.629Z,4.46
2023-11-19T01:07:21.617Z,4.47
2023-11-19T01:07:33.627Z,4.44
2023-11-19T01:07:44.559Z,4.46
2023-11-19T01:07:56.177Z,4.47
2023-11-19T01:08:07.667Z,4.50
2023-11-19T01:08:19.634Z,4.47
2023-11-19T01:08:31.625Z,4.47
2023-11-19T01:08:43.590Z,4.47
2023-11-19T01:08:54.586Z,4.50
2023-11-19T01:09:05.609Z,4.51
2023-11-19T01:09:16.609Z,4.50
2023-11-19T01:09:27.608Z,4.50
2023-11-19T01:09:39.589Z,4.50
2023-11-19T01:09:50.660Z,4.51
2023-11-19T01:10:02.671Z,4.50
2023-11-19T01:10:14.589Z,4.50
2023-11-19T01:10:25.889Z,4.51
2023-11-19T01:10:37.620Z,4.47
2023-11-19T01:10:49.603Z,4.50
2023-11-19T01:11:00.592Z,4.51
2023-11-19T01:11:11.590Z,4.50
2023-11-19T01:11:22.590Z,4.50
2023-11-19T01:11:33.580Z,4.51
2023-11-19T01:11:44.575Z,4.50
2023-11-19T01:11:55.578Z,4.52
2023-11-19T01:12:06.615Z,4.52
2023-11-19T01:12:18.612Z,4.51
2023-11-19T01:12:30.628Z,4.51
2023-11-19T01:12:42.594Z,4.52
2023-11-19T01:12:53.731Z,4.52
2023-11-19T01:13:04.592Z,4.52
2023-11-19T01:13:16.674Z,4.51
2023-11-19T01:13:27.587Z,4.52
2023-11-19T01:13:38.588Z,4.52
2023-11-19T01:13:50.587Z,4.52
2023-11-19T01:14:01.572Z,4.51
2023-11-19T01:14:12.583Z,4.52
2023-11-19T01:14:23.668Z,4.52
2023-11-19T01:14:34.563Z,4.52
2023-11-19T01:14:45.574Z,4.51
2023-11-19T01:14:56.584Z,4.51
2023-11-19T01:15:07.630Z,4.52
2023-11-19T01:15:19.619Z,4.51
2023-11-19T01:15:31.605Z,4.52
2023-11-19T01:15:42.734Z,4.52
2023-11-19T01:15:54.687Z,4.52
2023-11-19T01:16:06.610Z,4.52
2023-11-19T01:16:18.666Z,4.52
2023-11-19T01:16:29.654Z,4.52
2023-11-19T01:16:40.650Z,4.54
2023-11-19T01:16:51.679Z,4.54
2023-11-19T01:17:02.746Z,4.54
2023-11-19T01:17:13.600Z,4.54
2023-11-19T01:17:24.610Z,4.52
2023-11-19T01:17:35.629Z,4.54
2023-11-19T01:17:59.624Z,4.54
2023-11-19T01:18:11.667Z,4.54
2023-11-19T01:18:22.620Z,4.54
2023-11-19T01:18:33.612Z,4.55
2023-11-19T01:18:45.601Z,4.55
2023-11-19T01:19:09.295Z,4.55
2023-11-19T01:19:15.756Z,4.55
2023-11-19T01:19:21.667Z,4.57
2023-11-19T01:19:32.620Z,4.54
2023-11-19T01:19:44.653Z,4.57
2023-11-19T01:19:56.633Z,4.57
2023-11-19T01:20:08.625Z,4.57
2023-11-19T01:20:20.590Z,4.57
2023-11-19T01:20:31.620Z,4.57
2023-11-19T01:20:43.617Z,4.55
2023-11-19T01:20:55.592Z,4.57
2023-11-19T01:21:06.596Z,4.57
2023-11-19T01:21:17.603Z,4.58
2023-11-19T01:21:28.599Z,4.58
2023-11-19T01:21:39.617Z,4.58
2023-11-19T01:21:50.613Z,4.59
2023-11-19T01:22:01.650Z,4.59
2023-11-19T01:22:13.688Z,4.59
2023-11-19T01:22:24.669Z,4.59
2023-11-19T01:22:35.580Z,4.59
2023-11-19T01:22:46.565Z,4.59
2023-11-19T01:22:57.565Z,4.59
2023-11-19T01:23:08.577Z,4.59
2023-11-19T01:23:19.646Z,4.62
2023-11-19T01:23:30.555Z,4.59
2023-11-19T01:23:41.640Z,4.59
2023-11-19T01:23:53.587Z,4.61
2023-11-19T01:24:04.591Z,4.61
2023-11-19T01:24:15.600Z,4.61
2023-11-19T01:24:26.599Z,4.62
2023-11-19T01:24:37.579Z,4.62
2023-11-19T01:24:48.580Z,4.61
2023-11-19T01:25:00.630Z,4.61
2023-11-19T01:25:11.577Z,4.62
2023-11-19T01:25:22.616Z,4.61
2023-11-19T01:25:34.644Z,4.61
2023-11-19T01:25:45.566Z,4.64
2023-11-19T01:25:56.569Z,4.61
2023-11-19T01:26:07.609Z,4.59
2023-11-19T01:26:18.609Z,4.59
2023-11-19T01:26:30.618Z,4.59
2023-11-19T01:26:42.595Z,4.61
2023-11-19T01:26:54.602Z,4.61
2023-11-19T01:27:05.600Z,4.61
2023-11-19T01:27:16.582Z,4.61
2023-11-19T01:27:27.590Z,4.61
2023-11-19T01:27:38.599Z,4.62
2023-11-19T01:27:49.661Z,4.61
2023-11-19T01:28:00.601Z,4.61
2023-11-19T01:28:11.676Z,4.62
2023-11-19T01:28:23.678Z,4.61
2023-11-19T01:28:35.637Z,4.61
2023-11-19T01:28:59.615Z,4.62
2023-11-19T01:29:11.580Z,4.62
2023-11-19T01:29:22.586Z,4.62
2023-11-19T01:29:33.586Z,4.64
2023-11-19T01:29:44.621Z,4.64
2023-11-19T01:29:55.609Z,4.64
2023-11-19T01:30:06.609Z,4.64
2023-11-19T01:30:18.591Z,4.64
2023-11-19T01:30:29.584Z,4.64
2023-11-19T01:30:41.580Z,4.65
2023-11-19T01:30:52.603Z,4.64
2023-11-19T01:31:04.619Z,4.65
2023-11-19T01:31:16.713Z,4.65
2023-11-19T01:31:28.695Z,4.67
2023-11-19T01:31:40.581Z,4.65
2023-11-19T01:31:51.589Z,4.65
2023-11-19T01:32:02.593Z,4.65
2023-11-19T01:32:13.602Z,4.67
2023-11-19T01:32:25.574Z,4.67
2023-11-19T01:32:36.584Z,4.67
2023-11-19T01:32:47.587Z,4.67
2023-11-19T01:32:58.658Z,4.67
2023-11-19T01:33:09.630Z,4.67
2023-11-19T01:33:20.558Z,4.67
2023-11-19T01:33:31.578Z,4.67
2023-11-19T01:33:42.633Z,4.65
2023-11-19T01:33:54.738Z,4.67
2023-11-19T01:34:06.662Z,4.67
2023-11-19T01:34:18.678Z,4.69
2023-11-19T01:34:30.620Z,4.69
2023-11-19T01:34:41.646Z,4.69
2023-11-19T01:34:52.682Z,4.69
2023-11-19T01:35:04.643Z,4.70
2023-11-19T01:35:15.554Z,4.69
2023-11-19T01:35:28.290Z,4.70
2023-11-19T01:35:37.597Z,4.70
2023-11-19T01:35:49.657Z,4.70
2023-11-19T01:36:01.610Z,4.70
2023-11-19T01:36:13.575Z,4.72
2023-11-19T01:36:24.580Z,4.70
2023-11-19T01:36:35.576Z,4.70
2023-11-19T01:36:46.619Z,4.70
2023-11-19T01:36:58.657Z,4.70
2023-11-19T01:37:09.645Z,4.72
2023-11-19T01:37:20.670Z,4.72
2023-11-19T01:37:32.705Z,4.72
2023-11-19T01:37:44.604Z,4.73
2023-11-19T01:37:56.586Z,4.73
2023-11-19T01:38:07.588Z,4.70
2023-11-19T01:38:18.594Z,4.73
2023-11-19T01:38:29.577Z,4.72
2023-11-19T01:38:40.575Z,4.75
2023-11-19T01:38:51.608Z,4.73
2023-11-19T01:39:03.580Z,4.73
2023-11-19T01:39:14.566Z,4.76
2023-11-19T01:39:25.580Z,4.75
2023-11-19T01:39:36.609Z,4.75
2023-11-19T01:39:58.875Z,4.75
2023-11-19T01:40:00.613Z,4.75
2023-11-19T01:40:10.643Z,4.73
2023-11-19T01:40:22.663Z,4.75
2023-11-19T01:40:34.693Z,4.73
2023-11-19T01:40:46.588Z,4.75
2023-11-19T01:40:57.585Z,4.75
2023-11-19T01:41:08.611Z,4.76
2023-11-19T01:41:19.629Z,4.75
2023-11-19T01:41:31.576Z,4.73
2023-11-19T01:41:42.583Z,4.73
2023-11-19T01:41:53.656Z,4.76
2023-11-19T01:42:04.643Z,4.75
2023-11-19T01:42:16.596Z,4.75
2023-11-19T01:42:27.598Z,4.75
2023-11-19T01:42:38.596Z,4.76
2023-11-19T01:42:49.586Z,4.75
2023-11-19T01:43:00.583Z,4.75
2023-11-19T01:43:11.594Z,4.76
2023-11-19T01:43:22.625Z,4.76
2023-11-19T01:43:34.597Z,4.76
2023-11-19T01:43:45.587Z,4.76
2023-11-19T01:43:57.590Z,4.76
2023-11-19T01:44:08.562Z,4.75
2023-11-19T01:44:19.554Z,4.77
2023-11-19T01:44:30.582Z,4.76
2023-11-19T01:44:41.570Z,4.77
2023-11-19T01:44:52.569Z,4.76
2023-11-19T01:45:03.582Z,4.77
2023-11-19T01:45:14.599Z,4.76
2023-11-19T01:45:26.671Z,4.77
2023-11-19T01:45:38.638Z,4.76
2023-11-19T01:45:50.621Z,4.76
2023-11-19T01:46:02.677Z,4.77
2023-11-19T01:46:13.656Z,4.77
2023-11-19T01:46:24.672Z,4.76
2023-11-19T01:46:35.642Z,4.77
2023-11-19T01:46:46.813Z,4.77
2023-11-19T01:46:58.702Z,4.77
2023-11-19T01:47:09.609Z,4.77
2023-11-19T01:47:20.609Z,4.77
2023-11-19T01:47:31.623Z,4.76
2023-11-19T01:47:43.616Z,4.79
2023-11-19T01:47:54.634Z,4.77
2023-11-19T01:48:06.625Z,4.77
2023-11-19T01:48:18.610Z,4.79
2023-11-19T01:48:29.589Z,4.79
2023-11-19T01:48:40.574Z,4.79
2023-11-19T01:48:51.722Z,4.79
2023-11-19T01:49:02.633Z,4.79
2023-11-19T01:49:14.641Z,4.79
2023-11-19T01:49:25.606Z,4.80
2023-11-19T01:49:36.614Z,4.79
2023-11-19T01:49:47.595Z,4.77
2023-11-19T01:49:59.578Z,4.79
2023-11-19T01:50:10.683Z,4.79
2023-11-19T01:50:21.584Z,4.80
2023-11-19T01:50:32.581Z,4.79
2023-11-19T01:50:43.597Z,4.79
2023-11-19T01:51:02.606Z,4.80
2023-11-19T01:51:06.608Z,4.79
2023-11-19T01:51:17.631Z,4.80
2023-11-19T01:51:29.623Z,4.80
2023-11-19T01:51:41.593Z,4.80
2023-11-19T01:51:52.603Z,4.80
2023-11-19T01:52:03.614Z,4.83
2023-11-19T01:52:15.654Z,4.83
2023-11-19T01:52:26.670Z,4.83
2023-11-19T01:52:37.603Z,4.83
2023-11-19T01:52:48.611Z,4.84
2023-11-19T01:52:59.608Z,4.83
2023-11-19T01:53:10.611Z,4.83
2023-11-19T01:53:21.604Z,4.83
2023-11-19T01:53:33.585Z,4.83
2023-11-19T01:53:44.578Z,4.83
2023-11-19T01:53:55.579Z,4.83
2023-11-19T01:54:07.577Z,4.84
2023-11-19T01:54:18.578Z,4.83
2023-11-19T01:54:29.568Z,4.83
2023-11-19T01:54:40.576Z,4.84
2023-11-19T01:54:51.572Z,4.84
2023-11-19T01:55:02.615Z,4.83
2023-11-19T01:55:14.637Z,4.86
2023-11-19T01:55:26.655Z,4.84
2023-11-19T01:55:37.643Z,4.84
2023-11-19T01:55:48.645Z,4.86
2023-11-19T01:56:00.643Z,4.86
2023-11-19T01:56:12.605Z,4.84
2023-11-19T01:56:23.603Z,4.84
2023-11-19T01:56:34.636Z,4.84
2023-11-19T01:56:46.608Z,4.84
2023-11-19T01:56:57.601Z,4.84
2023-11-19T01:57:08.592Z,4.83
2023-11-19T01:57:19.595Z,4.84
2023-11-19T01:57:30.597Z,4.86
2023-11-19T01:57:41.595Z,4.86
2023-11-19T01:57:52.598Z,4.86
2023-11-19T01:58:03.654Z,4.84
2023-11-19T01:58:14.615Z,4.86
2023-11-19T01:58:26.603Z,4.86
2023-11-19T01:58:37.565Z,4.86
2023-11-19T01:58:48.554Z,4.83
2023-11-19T01:58:59.548Z,4.84
2023-11-19T01:59:10.652Z,4.88
2023-11-19T01:59:22.630Z,4.86
2023-11-19T01:59:34.594Z,4.88
2023-11-19T01:59:45.583Z,4.86
2023-11-19T01:59:56.595Z,4.88
2023-11-19T02:00:07.602Z,4.89
2023-11-19T02:00:18.604Z,4.89
2023-11-19T02:00:29.614Z,4.89
2023-11-19T02:00:41.584Z,4.91
2023-11-19T02:00:52.651Z,4.89
2023-11-19T02:01:03.606Z,4.91
2023-11-19T02:01:14.727Z,4.92
2023-11-19T02:01:26.790Z,4.91
2023-11-19T02:01:38.717Z,4.91
2023-11-19T02:02:00.347Z,4.94
2023-11-19T02:02:02.029Z,4.92
2023-11-19T02:02:11.684Z,4.91
2023-11-19T02:02:23.915Z,4.92
2023-11-19T02:02:34.736Z,4.92
2023-11-19T02:02:45.972Z,4.94
2023-11-19T02:02:57.759Z,4.92
2023-11-19T02:03:09.760Z,4.92
2023-11-19T02:03:20.694Z,4.91
2023-11-19T02:03:31.712Z,4.94
2023-11-19T02:03:42.648Z,4.94
2023-11-19T02:03:53.993Z,4.94
2023-11-19T02:04:05.706Z,4.94
2023-11-19T02:04:16.730Z,4.94
2023-11-19T02:04:27.803Z,4.94
2023-11-19T02:04:38.718Z,4.95
2023-11-19T02:04:50.647Z,4.94
2023-11-19T02:05:02.639Z,4.94
2023-11-19T02:05:14.653Z,4.95
2023-11-19T02:05:25.579Z,4.94
2023-11-19T02:05:36.566Z,4.96
2023-11-19T02:05:47.561Z,4.95
2023-11-19T02:05:58.602Z,4.96
2023-11-19T02:06:09.607Z,4.95
2023-11-19T02:06:20.620Z,4.95
2023-11-19T02:06:32.588Z,4.98
2023-11-19T02:06:43.586Z,4.96
2023-11-19T02:06:55.605Z,4.98
2023-11-19T02:07:06.618Z,4.99
2023-11-19T02:07:18.623Z,4.99
2023-11-19T02:07:29.555Z,4.98
2023-11-19T02:07:40.648Z,4.98
2023-11-19T02:07:52.632Z,4.98
2023-11-19T02:08:04.608Z,4.98
2023-11-19T02:08:16.566Z,4.99
2023-11-19T02:08:27.577Z,4.99
2023-11-19T02:08:38.601Z,4.98
2023-11-19T02:08:49.643Z,4.99
2023-11-19T02:09:01.593Z,4.98
2023-11-19T02:09:12.588Z,4.98
2023-11-19T02:09:23.574Z,4.99
2023-11-19T02:09:34.580Z,4.96
2023-11-19T02:09:45.625Z,4.98
2023-11-19T02:09:57.635Z,4.98
2023-11-19T02:10:09.670Z,4.98
2023-11-19T02:10:21.621Z,4.99
2023-11-19T02:10:33.597Z,4.98
2023-11-19T02:10:44.629Z,4.98
2023-11-19T02:10:55.607Z,4.98
2023-11-19T02:11:06.608Z,4.99
2023-11-19T02:11:17.593Z,4.99
2023-11-19T02:11:28.584Z,4.99
2023-11-19T02:11:39.574Z,4.99
2023-11-19T02:11:50.556Z,4.99
2023-11-19T02:12:01.596Z,4.99
2023-11-19T02:12:12.591Z,4.99
2023-11-19T02:12:23.585Z,4.99
2023-11-19T02:12:34.604Z,4.99
2023-11-19T02:12:46.590Z,4.98
2023-11-19T02:13:06.264Z,4.98
2023-11-19T02:13:10.613Z,4.99
2023-11-19T02:13:20.568Z,4.99
2023-11-19T02:13:31.572Z,4.96
2023-11-19T02:13:43.619Z,4.98
2023-11-19T02:13:54.610Z,4.99
2023-11-19T02:14:05.607Z,4.99
2023-11-19T02:14:16.664Z,5.01
2023-11-19T02:14:28.607Z,5.01
2023-11-19T02:14:39.604Z,5.01
2023-11-19T02:14:50.611Z,4.99
2023-11-19T02:15:02.614Z,4.99
2023-11-19T02:15:13.635Z,5.01
2023-11-19T02:15:25.614Z,5.02
2023-11-19T02:15:37.629Z,5.01
2023-11-19T02:15:49.657Z,5.02
2023-11-19T02:16:00.694Z,5.01
2023-11-19T02:16:12.853Z,5.02
2023-11-19T02:16:24.641Z,5.01
2023-11-19T02:16:36.739Z,5.02
2023-11-19T02:16:48.647Z,5.01
2023-11-19T02:17:00.603Z,5.02
2023-11-19T02:17:11.598Z,5.02
2023-11-19T02:17:22.596Z,5.01
2023-11-19T02:17:33.658Z,5.01
2023-11-19T02:17:45.657Z,5.01
2023-11-19T02:17:57.630Z,4.99
2023-11-19T02:18:09.596Z,5.01
2023-11-19T02:18:20.603Z,5.02
2023-11-19T02:18:31.681Z,5.01
2023-11-19T02:18:42.609Z,5.01
2023-11-19T02:18:53.623Z,5.01
2023-11-19T02:19:05.657Z,5.01
2023-11-19T02:19:16.638Z,5.02
2023-11-19T02:19:28.672Z,5.02
2023-11-19T02:19:39.605Z,5.01
2023-11-19T02:19:50.600Z,5.01
2023-11-19T02:20:01.594Z,5.02
2023-11-19T02:20:13.804Z,5.01
2023-11-19T02:20:24.647Z,5.02
2023-11-19T02:20:36.622Z,5.02
2023-11-19T02:20:50.924Z,5.04
2023-11-19T02:21:00.601Z,5.02
2023-11-19T02:21:11.589Z,5.02
2023-11-19T02:21:23.595Z,5.02
2023-11-19T02:21:34.593Z,5.02
2023-11-19T02:21:45.580Z,4.99
2023-11-19T02:21:56.601Z,5.02
2023-11-19T02:22:07.676Z,5.02
2023-11-19T02:22:19.706Z,5.02
2023-11-19T02:22:31.560Z,5.01
2023-11-19T02:22:42.552Z,5.02
2023-11-19T02:22:53.597Z,5.04
2023-11-19T02:23:04.597Z,5.04
2023-11-19T02:23:15.610Z,5.04
2023-11-19T02:23:27.576Z,5.04
2023-11-19T02:23:38.572Z,5.04
2023-11-19T02:23:49.605Z,5.02
2023-11-19T02:24:12.628Z,5.04
2023-11-19T02:24:24.598Z,5.04
2023-11-19T02:24:35.615Z,5.04
2023-11-19T02:24:47.580Z,5.04
2023-11-19T02:24:58.605Z,5.04
2023-11-19T02:25:10.611Z,5.04
2023-11-19T02:25:22.617Z,5.04
2023-11-19T02:25:33.625Z,5.02
2023-11-19T02:25:45.612Z,5.04
2023-11-19T02:25:56.609Z,5.04
2023-11-19T02:26:07.612Z,5.02
2023-11-19T02:26:19.619Z,5.04
2023-11-19T02:26:30.604Z,5.04
2023-11-19T02:26:41.588Z,5.05
2023-11-19T02:26:52.600Z,5.04
2023-11-19T02:27:03.605Z,5.04
2023-11-19T02:27:14.603Z,5.04
2023-11-19T02:27:26.597Z,5.04
2023-11-19T02:27:37.580Z,5.05
2023-11-19T02:27:48.554Z,5.04
2023-11-19T02:27:59.599Z,5.05
2023-11-19T02:28:10.638Z,5.05
2023-11-19T02:28:22.636Z,5.05
2023-11-19T02:28:34.732Z,5.05
2023-11-19T02:28:46.651Z,5.04
2023-11-19T02:28:58.611Z,5.04
2023-11-19T02:29:10.581Z,5.05
2023-11-19T02:29:21.580Z,5.05
2023-11-19T02:29:32.598Z,5.02
2023-11-19T02:29:44.586Z,5.04
2023-11-19T02:29:55.606Z,5.04
2023-11-19T02:30:06.599Z,5.02
2023-11-19T02:30:17.616Z,5.04
2023-11-19T02:30:28.607Z,5.02
2023-11-19T02:30:39.603Z,5.02
2023-11-19T02:30:50.672Z,5.02
2023-11-19T02:31:01.664Z,5.04
2023-11-19T02:31:12.810Z,5.04
2023-11-19T02:31:24.697Z,5.05
2023-11-19T02:31:36.669Z,5.04
2023-11-19T02:31:47.644Z,5.05
2023-11-19T02:31:59.706Z,5.04